createdAt,value
2019-03-03T00:02:29.951Z,23.83
2019-03-03T00:07:54.730Z,24.90
2019-03-03T00:13:19.468Z,24.17
2019-03-03T00:18:44.607Z,24.20
2019-03-03T00:24:10.466Z,23.23
2019-03-03T00:29:35.082Z,24.67
2019-03-03T00:34:59.685Z,25.80
2019-03-03T00:40:33.137Z,25.33
2019-03-03T00:46:07.181Z,26.37
2019-03-03T00:51:36.302Z,30.43
2019-03-03T00:57:11.945Z,31.10
2019-03-03T01:02:51.885Z,26.07
2019-03-03T01:08:31.370Z,23.27
2019-03-03T01:14:19.784Z,24.53
2019-03-03T01:20:19.027Z,23.17
2019-03-03T01:25:42.900Z,24.07
2019-03-03T01:31:07.576Z,24.13
2019-03-03T01:36:31.258Z,24.47
2019-03-03T01:41:55.303Z,27.07
2019-03-03T01:47:20.369Z,25.47
2019-03-03T01:52:44.631Z,24.80
2019-03-03T01:58:09.326Z,26.30
2019-03-03T02:03:35.580Z,26.30
2019-03-03T02:08:59.839Z,27.03
2019-03-03T02:14:25.609Z,26.57
2019-03-03T02:19:49.512Z,27.67
2019-03-03T02:25:14.491Z,24.53
2019-03-03T02:30:40.816Z,26.63
2019-03-03T02:36:05.681Z,25.73
2019-03-03T02:41:30.312Z,26.00
2019-03-03T02:46:54.463Z,29.43
2019-03-03T02:52:19.310Z,30.17
2019-03-03T02:57:43.315Z,35.00
2019-03-03T03:03:10.647Z,38.57
2019-03-03T03:08:54.410Z,35.30
2019-03-03T03:14:33.907Z,36.43
2019-03-03T03:20:21.522Z,33.33
2019-03-03T03:25:52.872Z,34.67
2019-03-03T03:31:37.243Z,34.10
2019-03-03T03:37:06.494Z,32.10
2019-03-03T03:43:05.980Z,31.57
2019-03-03T03:48:48.022Z,32.77
2019-03-03T03:54:30.279Z,34.63
2019-03-03T04:00:06.788Z,34.40
2019-03-03T04:05:47.547Z,32.90
2019-03-03T04:11:17.704Z,35.33
2019-03-03T04:17:10.206Z,35.97
2019-03-03T04:22:51.918Z,34.40
2019-03-03T04:28:31.683Z,32.83
2019-03-03T04:34:02.623Z,30.17
2019-03-03T04:39:50.273Z,28.03
2019-03-03T04:45:20.127Z,25.73
2019-03-03T04:50:58.890Z,24.87
2019-03-03T04:56:32.019Z,24.83
2019-03-03T05:02:03.461Z,20.70
2019-03-03T05:07:36.230Z,21.67
2019-03-03T05:13:16.527Z,22.37
2019-03-03T05:18:44.887Z,20.40
2019-03-03T05:24:08.843Z,22.33
2019-03-03T05:29:32.836Z,20.77
2019-03-03T05:34:56.690Z,21.07
2019-03-03T05:40:20.534Z,19.73
2019-03-03T05:45:45.027Z,18.53
2019-03-03T05:51:09.726Z,18.93
2019-03-03T05:56:33.578Z,17.20
2019-03-03T06:01:58.399Z,17.63
2019-03-03T06:07:23.338Z,15.70
2019-03-03T06:12:47.943Z,14.63
2019-03-03T06:18:12.332Z,14.00
2019-03-03T06:23:36.058Z,14.87
2019-03-03T06:29:00.701Z,12.77
2019-03-03T06:34:25.804Z,11.37
2019-03-03T06:39:49.641Z,11.60
2019-03-03T06:45:14.712Z,9.90
2019-03-03T06:50:39.137Z,8.40
2019-03-03T06:56:03.016Z,9.03
2019-03-03T07:01:27.000Z,7.97
2019-03-03T07:06:51.970Z,7.33
2019-03-03T07:12:16.422Z,7.27
2019-03-03T07:17:41.217Z,7.23
2019-03-03T07:23:05.283Z,6.93
2019-03-03T07:28:29.747Z,6.70
2019-03-03T07:33:57.336Z,7.07
2019-03-03T07:39:21.128Z,5.90
2019-03-03T07:44:45.738Z,5.77
2019-03-03T07:50:09.995Z,5.43
2019-03-03T07:55:34.612Z,6.60
2019-03-03T08:00:58.448Z,5.47
2019-03-03T08:06:23.185Z,5.70
2019-03-03T08:11:47.976Z,5.47
2019-03-03T08:17:12.400Z,6.00
2019-03-03T08:22:36.137Z,4.97
2019-03-03T08:28:00.587Z,5.63
2019-03-03T08:33:25.357Z,5.17
2019-03-03T08:38:50.473Z,4.80
2019-03-03T08:44:22.445Z,5.40
2019-03-03T08:49:52.936Z,5.37
2019-03-03T08:55:35.905Z,5.90
2019-03-03T09:01:23.032Z,5.00
2019-03-03T09:06:55.616Z,6.07
2019-03-03T09:12:41.832Z,5.80
2019-03-03T09:18:15.164Z,4.27
2019-03-03T09:23:57.805Z,4.97
2019-03-03T09:29:30.480Z,6.30
2019-03-03T09:35:13.745Z,4.87
2019-03-03T09:41:03.610Z,4.80
2019-03-03T09:46:52.283Z,4.40
2019-03-03T09:52:23.842Z,3.90
2019-03-03T09:58:13.949Z,4.23
2019-03-03T10:04:05.831Z,4.80
2019-03-03T10:09:52.672Z,5.53
2019-03-03T10:15:37.661Z,5.17
2019-03-03T10:21:14.151Z,4.27
2019-03-03T10:26:53.790Z,4.33
2019-03-03T10:32:34.572Z,4.57
2019-03-03T10:38:16.906Z,4.97
2019-03-03T10:43:53.405Z,3.90
2019-03-03T10:49:39.293Z,3.80
2019-03-03T10:55:13.938Z,4.27
2019-03-03T11:00:57.739Z,4.23
2019-03-03T11:06:31.795Z,4.97
2019-03-03T11:12:13.242Z,5.27
2019-03-03T11:17:50.738Z,4.83
2019-03-03T11:23:41.099Z,4.30
2019-03-03T11:29:29.526Z,4.10
2019-03-03T11:35:14.225Z,4.60
2019-03-03T11:40:44.977Z,4.30
2019-03-03T11:46:21.689Z,4.80
2019-03-03T11:52:05.617Z,4.20
2019-03-03T11:57:58.445Z,5.00
2019-03-03T12:03:40.293Z,3.87
2019-03-03T12:09:22.827Z,4.90
2019-03-03T12:15:07.388Z,4.90
2019-03-03T12:20:48.562Z,4.80
2019-03-03T12:26:38.499Z,4.67
2019-03-03T12:32:19.603Z,5.43
2019-03-03T12:38:05.901Z,5.27
2019-03-03T12:43:39.773Z,6.27
2019-03-03T12:49:12.277Z,5.13
2019-03-03T12:54:55.880Z,5.20
2019-03-03T13:00:26.266Z,5.20
2019-03-03T13:06:08.661Z,4.77
2019-03-03T13:11:45.582Z,5.70
2019-03-03T13:17:25.946Z,4.80
2019-03-03T13:23:18.020Z,4.80
2019-03-03T13:29:00.217Z,4.47
2019-03-03T13:34:41.036Z,4.43
2019-03-03T13:40:21.787Z,4.73
2019-03-03T13:45:45.428Z,4.77
2019-03-03T13:51:10.023Z,4.37
2019-03-03T13:56:34.569Z,4.00
2019-03-03T14:02:00.429Z,4.80
2019-03-03T14:07:25.146Z,4.03
2019-03-03T14:12:49.066Z,4.07
2019-03-03T14:18:13.273Z,4.27
2019-03-03T14:23:40.400Z,4.33
2019-03-03T14:29:04.533Z,4.30
2019-03-03T14:34:28.174Z,4.90
2019-03-03T14:39:52.611Z,4.40
2019-03-03T14:45:17.397Z,5.43
2019-03-03T14:50:41.890Z,5.50
2019-03-03T14:56:06.863Z,4.60
2019-03-03T15:01:32.679Z,5.17
2019-03-03T15:06:57.880Z,4.67
2019-03-03T15:12:22.684Z,5.00
2019-03-03T15:17:47.401Z,4.87
2019-03-03T15:23:11.501Z,4.30
2019-03-03T15:28:35.330Z,5.20
2019-03-03T15:34:00.074Z,5.37
2019-03-03T15:39:24.893Z,5.23
2019-03-03T15:44:49.240Z,6.40
2019-03-03T15:50:13.326Z,6.80
2019-03-03T15:55:37.153Z,7.27
2019-03-03T16:01:02.699Z,6.67
2019-03-03T16:06:27.753Z,7.57
2019-03-03T16:11:51.539Z,7.53
2019-03-03T16:17:15.344Z,7.37
2019-03-03T16:22:40.038Z,7.73
2019-03-03T16:28:04.568Z,7.50
2019-03-03T16:33:28.521Z,6.20
2019-03-03T16:38:52.147Z,7.67
2019-03-03T16:44:16.014Z,9.20
2019-03-03T16:49:40.812Z,7.47
2019-03-03T16:55:05.581Z,9.07
2019-03-03T17:00:30.535Z,6.03
2019-03-03T17:05:54.166Z,7.43
2019-03-03T17:11:19.060Z,8.50
2019-03-03T17:16:43.393Z,6.47
2019-03-03T17:22:08.280Z,6.70
2019-03-03T17:27:33.070Z,6.27
2019-03-03T17:32:57.138Z,6.47
2019-03-03T17:38:21.641Z,6.60
2019-03-03T17:43:46.373Z,7.17
2019-03-03T17:49:11.150Z,7.97
2019-03-03T17:54:35.788Z,6.77
2019-03-03T17:59:59.761Z,6.87
2019-03-03T18:05:24.350Z,6.80
2019-03-03T18:10:48.952Z,5.73
2019-03-03T18:16:13.880Z,5.33
2019-03-03T18:21:39.007Z,6.03
2019-03-03T18:27:04.805Z,5.90
2019-03-03T18:32:29.307Z,6.20
2019-03-03T18:37:55.245Z,5.30
2019-03-03T18:43:20.102Z,6.43
2019-03-03T18:48:44.888Z,6.27
2019-03-03T18:54:08.610Z,5.37
2019-03-03T18:59:35.145Z,5.80
2019-03-03T19:04:59.512Z,6.10
2019-03-03T19:10:25.339Z,6.37
2019-03-03T19:15:50.324Z,5.83
2019-03-03T19:21:15.144Z,5.80
2019-03-03T19:26:38.843Z,5.40
2019-03-03T19:32:04.514Z,6.80
2019-03-03T19:37:28.352Z,5.67
2019-03-03T19:42:54.455Z,5.10
2019-03-03T19:48:19.094Z,6.10
2019-03-03T19:53:43.893Z,6.53
2019-03-03T19:59:08.529Z,4.67
2019-03-03T20:04:33.040Z,4.97
2019-03-03T20:09:58.112Z,5.00
2019-03-03T20:15:21.964Z,4.83
2019-03-03T20:20:45.653Z,5.03
2019-03-03T20:26:09.413Z,5.00
2019-03-03T20:31:35.657Z,5.53
2019-03-03T20:36:59.320Z,5.17
2019-03-03T20:42:24.053Z,4.40
2019-03-03T20:47:49.336Z,4.27
2019-03-03T20:53:14.383Z,4.97
2019-03-03T20:58:39.099Z,4.57
2019-03-03T21:04:04.076Z,4.17
2019-03-03T21:09:27.686Z,3.77
2019-03-03T21:14:51.761Z,4.27
2019-03-03T21:20:16.894Z,3.97
2019-03-03T21:25:41.077Z,5.47
2019-03-03T21:31:04.841Z,5.10
2019-03-03T21:36:29.504Z,4.50
2019-03-03T21:41:54.096Z,4.13
2019-03-03T21:47:17.950Z,4.43
2019-03-03T21:52:41.674Z,4.73
2019-03-03T21:58:07.005Z,4.10
2019-03-03T22:03:31.144Z,3.90
2019-03-03T22:08:55.031Z,3.63
2019-03-03T22:14:19.050Z,4.43
2019-03-03T22:19:43.827Z,3.70
2019-03-03T22:25:08.724Z,4.90
2019-03-03T22:30:32.993Z,4.53
2019-03-03T22:35:57.004Z,4.83
2019-03-03T22:41:20.785Z,4.77
2019-03-03T22:46:44.913Z,5.53
2019-03-03T22:52:09.545Z,5.70
2019-03-03T22:57:34.254Z,5.10
2019-03-03T23:02:59.051Z,4.80
2019-03-03T23:08:40.982Z,4.03
2019-03-03T23:14:29.446Z,3.83
2019-03-03T23:20:25.331Z,4.13
2019-03-03T23:25:49.819Z,4.60
2019-03-03T23:31:14.617Z,3.80
2019-03-03T23:36:39.178Z,3.70
2019-03-03T23:42:04.021Z,3.40
2019-03-03T23:47:27.881Z,4.03
2019-03-03T23:52:52.536Z,3.50
2019-03-03T23:58:16.183Z,3.73
